Cebollita Spring, Valles Caldera, New Mexico Weather observations

Data are for 10 minute period ending at time listed.
 Day   Time   Solar   Ave.   Ave.  Ave.  Vector  Max.   Baro.   Total    
  of    of     Rad.   Air    Rel.  Wind   Wind   Wind  Press.  Precip.   
Year   Day            Temp.  Hum.  Speed  Dir.   Gust                    
2016   (MST)  Kw/m2    F      %     mph   deg.    mph    mb.     in.     
-------------------------------------------------------------------------
 237   23:30   0.00   44.3    94    2.4   353     4.8   99999.0    0.00 
 237   23:40   0.00   43.3    95    2.0    43     3.6   99999.0    0.00 
 237   23:50   0.00   42.4    97    2.8    61     5.4   99999.0    0.00 
 238    0:00   0.00   42.0    98    0.7    59     2.4   99999.0    0.00 
 238    0:10   0.00   41.1    98    1.2    72     3.0   99999.0    0.00 
 238    0:20   0.00   40.5    99    0.4    61     3.0   99999.0    0.00 
 238    0:30   0.00   39.9    99    2.1    67     3.0   99999.0    0.00 
 238    0:40   0.00   39.4    99    0.3    69     2.4   99999.0    0.00 
 238    0:50   0.00   38.8   100    1.9    67     3.0   99999.0    0.00 
 238    1:00   0.00   38.5   100    1.2    55     2.4   99999.0    0.00 
 238    1:10   0.00   38.3   100    1.9    69     3.0   99999.0    0.00 
 238    1:20   0.00   38.1   100    1.0    70     2.4   99999.0    0.00 
 238    1:30   0.00   37.8   100    2.0    69     3.0   99999.0    0.00 
 238    1:40   0.00   37.6   100    0.8    57     2.4   99999.0    0.00 
 238    1:50   0.00   37.5   100    2.1    70     3.0   99999.0    0.00 
 238    2:00   0.00   37.3   100    1.9    61     3.0   99999.0    0.00 
 238    2:10   0.00   37.3   100    2.2    59     3.0   99999.0    0.00 
 238    2:20   0.00   37.4   100    1.7    63     3.0   99999.0    0.00 
 238    2:30   0.00   37.5   100    2.0    61     3.0   99999.0    0.00 
 238    2:40   0.00   37.3   100    2.4    70     3.0   99999.0    0.00 
 238    2:50   0.00   37.3   100    2.0    72     3.0   99999.0    0.00 
 238    3:00   0.00   37.4   100    2.1    67     3.6   99999.0    0.00 
 238    3:10   0.00   37.6   100    1.7    63     2.7   99999.0    0.00 
 238    3:20   0.00   37.3   100    2.2    71     3.6   99999.0    0.00 
 238    3:30   0.00   37.2   100    3.1    74     4.2   99999.0    0.00 
 238    3:40   0.00   37.4   100    1.8    52     3.0   99999.0    0.00 
 238    3:50   0.00   37.1   100    1.5    73     3.6   99999.0    0.00 
 238    4:00   0.00   36.7   100    0.2    49     2.4   99999.0    0.00 
 238    4:10   0.00   36.4   100    1.2    61     2.4   99999.0    0.00 
 238    4:20   0.00   36.1   100    2.1    66     3.0   99999.0    0.00 
 238    4:30   0.00   36.0   100    1.1    63     1.8   99999.0    0.00 
 238    4:40   0.00   36.0   100    1.3    72     3.0   99999.0    0.00 
 238    4:50   0.00   35.9   100    1.5    63     2.4   99999.0    0.00 
 238    5:00   0.00   35.6   100    1.9    70     2.4   99999.0    0.00 
 238    5:10   0.00   35.6   100    1.5    63     3.0   99999.0    0.00 
 238    5:20   0.00   35.5   100    1.3    67     2.4   99999.0    0.00 
 238    5:30   0.00   35.4   100    1.9    66     2.7   99999.0    0.00 
 238    5:40   0.01   35.4   100    2.0    70     3.0   99999.0    0.00 
 238    5:50   0.01   35.5   100    1.0    59     2.4   99999.0    0.00 
 238    6:00   0.02   35.7   100    1.2    72     3.0   99999.0    0.00 
 238    6:10   0.03   36.0   100    1.1    62     2.4   99999.0    0.00 
 238    6:20   0.04   36.5   100    0.9    78     2.4   99999.0    0.00 
 238    6:30   0.16   37.4   100    1.4    73     3.0   99999.0    0.00 
 238    6:40   0.22   38.9   100    0.0     0     0.0   99999.0    0.00 
 238    6:50   0.26   40.3   100    0.1   321     1.8   99999.0    0.00 
 238    7:00   0.30   41.8   100    0.2   328     1.8   99999.0    0.00 
 238    7:10   0.34   43.9   100    0.0    85     1.2   99999.0    0.00 
 238    7:20   0.38   46.1   100    0.0   307     1.2   99999.0    0.00 
 238    7:30   0.42   47.9   100    0.1    34     1.2   99999.0    0.00 
 238    7:40   0.47   49.9    89    0.7   351     3.0   99999.0    0.00 
 238    7:50   0.50   53.1    70    1.1     5     3.0   99999.0    0.00 
 238    8:00   0.55   55.9    62    1.4    66     3.6   99999.0    0.00 
 238    8:10   0.58   57.7    56    2.3    70     4.2   99999.0    0.00 
 238    8:20   0.62   58.0    55    2.0    90     4.2   99999.0    0.00 
 238    8:30   0.61   59.0    50    1.2   340     3.0   99999.0    0.00 
 238    8:40   0.67   60.0    51    2.1   202     4.8   99999.0    0.00 
 238    8:50   0.67   60.8    51    2.0   171     5.4   99999.0    0.00 
 238    9:00   0.64   60.6    50    2.6   179     6.0   99999.0    0.00 
 238    9:10   0.70   61.3    49    2.7   112     5.1   99999.0    0.00 
 238    9:20   0.67   61.5    47    1.8   188     3.6   99999.0    0.00 
 238    9:30   0.76   62.2    47    3.1   172     5.4   99999.0    0.00 
 238    9:40   0.80   62.1    48    3.9   193     9.0   99999.0    0.00 
 238    9:50   0.86   63.2    47    4.3   115     8.4   99999.0    0.00 
 238   10:00   0.73   63.6    48    3.0   150     5.4   99999.0    0.00 
 238   10:10   0.75   63.8    47    4.4   147     7.8   99999.0    0.00 
 238   10:20   0.82   64.0    46    3.9   133     8.4   99999.0    0.00 
 238   10:30   0.89   64.1    46    3.6   125     9.0   99999.0    0.00 
 238   10:40   0.83   64.3    45    4.9   149     8.4   99999.0    0.00 
 238   10:50   0.81   64.5    46    4.3   168     8.4   99999.0    0.00 
 238   11:00   0.88   65.1    44    4.0   173     7.8   99999.0    0.00 
 238   11:10   0.86   65.6    44    4.3   165     9.6   99999.0    0.00 
 238   11:20   0.90   65.7    43    4.1   185     8.4   99999.0    0.00 
 238   11:30   0.82   65.6    43    3.6   196     9.6   99999.0    0.00 
 238   11:40   0.96   66.1    41    3.9   175    10.2   99999.0    0.00 
 238   11:50   1.00   67.4    41    4.1   187     9.6   99999.0    0.00 
 238   12:00   0.91   66.8    39    4.3   161    10.2   99999.0    0.00 
 238   12:10   0.61   65.8    38    5.0    45    11.9   99999.0    0.00 
 238   12:20   0.32   62.2    42    5.5    38    13.7   99999.0    0.00 
 238   12:30   0.31   61.0    46    5.4    34    14.3   99999.0    0.00 
 238   12:40   0.44   61.3    45    5.8    40     9.6   99999.0    0.00 
 238   12:50   0.50   62.8    44    4.7    40     9.0   99999.0    0.00 
 238   13:00   0.66   64.0    42    4.7    64     7.8   99999.0    0.00 
 238   13:10   0.78   65.7    38    3.6    59     9.6   99999.0    0.00 
 238   13:20   0.94   66.6    37    2.8    48     7.8   99999.0    0.00 
 238   13:30   0.72   68.0    35    2.9   155     6.0   99999.0    0.00 
 238   13:40   0.89   67.2    34    3.7   227     7.8   99999.0    0.00 
 238   13:50   0.75   68.1    34    3.5   224     6.0   99999.0    0.00 
 238   14:00   0.28   66.1    36    3.3   208     7.2   99999.0    0.00 
 238   14:10   0.47   66.2    36    3.2   209     6.0   99999.0    0.00 
 238   14:20   0.20   65.1    37    1.5   121     4.2   99999.0    0.00 
 238   14:30   0.27   65.0    39    0.7   168     2.4   99999.0    0.00 
 238   14:40   0.52   66.1    37    2.1   253     4.2   99999.0    0.00 
 238   14:50   0.81   68.0    34    2.6    77     4.8   99999.0    0.00 
 238   15:00   0.68   69.3    32    2.8   158     6.0   99999.0    0.00 
 238   15:10   0.64   69.2    32    2.9   150     4.8   99999.0    0.00 
 238   15:20   0.61   70.2    32    3.7   148    10.8   99999.0    0.00 
 238   15:30   0.58   69.6    31    3.4   221     7.8   99999.0    0.00 
 238   15:40   0.60   70.0    30    4.0   235     8.4   99999.0    0.00 
 238   15:50   0.38   69.1    30    3.3   209     5.4   99999.0    0.00 
 238   16:00   0.23   67.0    32    3.6   226     8.4   99999.0    0.00 
 238   16:10   0.28   67.0    31    2.9   189     6.3   99999.0    0.00 
 238   16:20   0.31   67.4    30    2.4   192     4.8   99999.0    0.00 
 238   16:30   0.38   68.7    29    3.6   231     6.0   99999.0    0.00 
 238   16:40   0.17   66.6    31    3.9   215     8.4   99999.0    0.00 
 238   16:50   0.35   66.2    31    5.0   244    11.3   99999.0    0.00 
 238   17:00   0.33   68.2    27    4.0   231     9.9   99999.0    0.00 
 238   17:10   0.19   68.0    28    3.0   217     7.8   99999.0    0.00 
 238   17:20   0.18   68.1    28    1.8   233     4.8   99999.0    0.00 
 238   17:30   0.10   66.8    29    2.9   225     5.4   99999.0    0.00 
 238   17:40   0.13   65.4    33    2.2   206     6.0   99999.0    0.00 
 238   17:50   0.15   66.8    33    2.0   185     4.2   99999.0    0.00 
 238   18:00   0.06   65.5    35    1.9   201     6.0   99999.0    0.00 
 238   18:10   0.04   62.5    41    0.9   212     3.6   99999.0    0.00 
 238   18:20   0.02   59.5    51    0.1   352     1.8   99999.0    0.00 
 238   18:30   0.01   57.5    57    1.9    66     3.0   99999.0    0.00 
 238   18:40   0.00   56.1    61    1.1    65     3.0   99999.0    0.00 
 238   18:50   0.00   55.1    64    0.6    63     2.4   99999.0    0.00 
 238   19:00   0.00   53.8    66    0.6    72     2.4   99999.0    0.00 
 238   19:10   0.00   52.8    67    1.2    67     2.4   99999.0    0.00 
 238   19:20   0.00   52.0    70    1.5    58     3.0   99999.0    0.00 
 238   19:30   0.00   51.1    69    1.6    68     3.0   99999.0    0.00 
 238   19:40   0.00   50.4    70    1.0    67     2.4   99999.0    0.00 
 238   19:50   0.00   50.2    73    1.8   296     4.8   99999.0    0.00 
 238   20:00   0.00   52.3    64    3.9   292    11.9   99999.0    0.00 
 238   20:10   0.00   55.1    53    4.2   318    10.2   99999.0    0.00 
 238   20:20   0.00   55.8    51    3.1   314     7.2   99999.0    0.00 
 238   20:30   0.00   56.7    52    3.4   298     9.6   99999.0    0.00 
 238   20:40   0.00   56.4    53    2.4   284     4.2   99999.0    0.00 
 238   20:50   0.00   56.9    48    4.6   260     9.6   99999.0    0.00 
 238   21:00   0.00   57.1    49    2.5   173     4.8   99999.0    0.00 
 238   21:10   0.00   56.0    52    1.7   157     4.2   99999.0    0.00 
 238   21:20   0.00   55.4    54    1.8    74     6.0   99999.0    0.00 
 238   21:30   0.00   54.5    60    2.4    60     4.8   99999.0    0.00 
 238   21:40   0.00   54.0    64    1.5    36     3.6   99999.0    0.00 
 238   21:50   0.00   54.6    58    4.6   315    10.2   99999.0    0.00 
 238   22:00   0.00   55.6    53    5.0   332    11.3   99999.0    0.00 
 238   22:10   0.00   55.3    54    5.1   320     9.0   99999.0    0.00 
 238   22:20   0.00   54.6    56    3.8   324     7.2   99999.0    0.00 
 238   22:30   0.00   54.0    57    3.8   316     6.6   99999.0    0.00 
 238   22:40   0.00   52.6    64    2.8   333     5.1   99999.0    0.00 
 238   22:50   0.00   51.0    67    3.2   330     6.6   99999.0    0.00 
 238   23:00   0.00   50.9    67    1.8   319     4.2   99999.0    0.00 
 238   23:10   0.00   51.3    65    1.6     0     4.2   99999.0    0.00 
 238   23:20   0.00   51.3    67    0.4   295     2.4   99999.0    0.00 

Return to Cebollita Spring, Valles Caldera graphs page.


Western Regional Climate Center,wrcc@dri.edu